createdAt,value
2023-03-28T00:01:07.899Z,-128.00
2023-03-28T00:03:41.357Z,-128.00
2023-03-28T00:06:13.031Z,-128.00
2023-03-28T00:08:41.107Z,-128.00
2023-03-28T00:11:18.970Z,-128.00
2023-03-28T00:13:58.271Z,-128.00
2023-03-28T00:16:34.551Z,-128.00
2023-03-28T00:19:10.158Z,-128.00
2023-03-28T00:21:40.225Z,-128.00
2023-03-28T00:24:10.989Z,-128.00
2023-03-28T00:26:38.862Z,-128.00
2023-03-28T00:29:09.206Z,-128.00
2023-03-28T00:31:39.064Z,-128.00
2023-03-28T00:34:07.109Z,-128.00
2023-03-28T00:36:35.128Z,-128.00
2023-03-28T00:39:10.561Z,-128.00
2023-03-28T00:41:40.294Z,-128.00
2023-03-28T00:44:39.754Z,-128.00
2023-03-28T00:47:28.124Z,-128.00
2023-03-28T00:50:07.583Z,-128.00
2023-03-28T00:53:02.309Z,-128.00
2023-03-28T00:55:41.807Z,-128.00
2023-03-28T00:58:11.415Z,-128.00
2023-03-28T01:00:41.323Z,-128.00
2023-03-28T01:03:13.912Z,-128.00
2023-03-28T01:05:43.221Z,-128.00
2023-03-28T01:08:14.192Z,-128.00
2023-03-28T01:10:42.170Z,-128.00
2023-03-28T01:13:14.807Z,-128.00
2023-03-28T01:15:43.273Z,-128.00
2023-03-28T01:18:11.761Z,-128.00
2023-03-28T01:20:55.166Z,-128.00
2023-03-28T01:23:42.100Z,-128.00
2023-03-28T01:26:32.915Z,-128.00
2023-03-28T01:30:00.848Z,-128.00
2023-03-28T01:32:40.385Z,-128.00
2023-03-28T01:35:19.870Z,-128.00
2023-03-28T01:37:57.849Z,-128.00
2023-03-28T01:40:35.017Z,-128.00
2023-03-28T01:43:26.101Z,-128.00
2023-03-28T01:46:17.131Z,-128.00
2023-03-28T01:49:10.993Z,-128.00
2023-03-28T01:51:47.062Z,-128.00
2023-03-28T01:54:23.824Z,-128.00
2023-03-28T01:57:03.337Z,-128.00
2023-03-28T01:59:57.215Z,-128.00
2023-03-28T02:02:30.278Z,-128.00
2023-03-28T02:05:08.016Z,-128.00
2023-03-28T02:07:44.084Z,-128.00
2023-03-28T02:10:15.696Z,-128.00
2023-03-28T02:13:08.289Z,-128.00
2023-03-28T02:15:50.968Z,-128.00
2023-03-28T02:18:44.718Z,-128.00
2023-03-28T02:21:31.899Z,-128.00
2023-03-28T02:24:27.680Z,-128.00
2023-03-28T02:27:25.390Z,-128.00
2023-03-28T02:30:09.717Z,-128.00
2023-03-28T02:32:50.550Z,-128.00
2023-03-28T02:35:23.481Z,-128.00
2023-03-28T02:38:04.176Z,-128.00
2023-03-28T02:41:13.095Z,-128.00
2023-03-28T02:43:52.573Z,-128.00
2023-03-28T02:46:36.800Z,-128.00
2023-03-28T02:49:17.747Z,-128.00
2023-03-28T02:51:51.797Z,-128.00
2023-03-28T02:54:30.026Z,-128.00
2023-03-28T02:57:42.854Z,-128.00
2023-03-28T03:00:18.606Z,-128.00
2023-03-28T03:02:51.577Z,-128.00
2023-03-28T03:05:22.830Z,-128.00
2023-03-28T03:07:51.645Z,-128.00
2023-03-28T03:10:20.218Z,-128.00
2023-03-28T03:12:49.520Z,-128.00
2023-03-28T03:15:18.951Z,-128.00
2023-03-28T03:17:58.852Z,-128.00
2023-03-28T03:20:33.559Z,-128.00
2023-03-28T03:23:03.676Z,-128.00
2023-03-28T03:25:34.618Z,-128.00
2023-03-28T03:28:29.262Z,-128.00
2023-03-28T03:30:58.406Z,-128.00
2023-03-28T03:33:46.681Z,-128.00
2023-03-28T03:36:20.433Z,-128.00
2023-03-28T03:38:48.444Z,-128.00
2023-03-28T03:41:21.372Z,-128.00
2023-03-28T03:43:51.525Z,-128.00
2023-03-28T03:46:19.547Z,-128.00
2023-03-28T03:48:50.523Z,-128.00
2023-03-28T03:51:18.804Z,-128.00
2023-03-28T03:53:47.002Z,-128.00
2023-03-28T03:56:17.617Z,-128.00
2023-03-28T03:59:04.015Z,-128.00
2023-03-28T04:01:35.059Z,-128.00
2023-03-28T04:04:14.533Z,-128.00
2023-03-28T04:07:02.489Z,-128.00
2023-03-28T04:09:32.240Z,-128.00
2023-03-28T04:12:05.234Z,-128.00
2023-03-28T04:14:34.013Z,-128.00
2023-03-28T04:17:23.433Z,-128.00
2023-03-28T04:19:51.784Z,-128.00
2023-03-28T04:22:20.907Z,-128.00
2023-03-28T04:24:53.605Z,-128.00
2023-03-28T04:27:35.326Z,-128.00
2023-03-28T04:30:04.955Z,-128.00
2023-03-28T04:32:59.223Z,-128.00
2023-03-28T04:35:29.823Z,-128.00
2023-03-28T04:37:57.962Z,-128.00
2023-03-28T04:40:28.177Z,-128.00
2023-03-28T04:43:17.245Z,-128.00
2023-03-28T04:45:55.997Z,-128.00
2023-03-28T04:48:24.990Z,-128.00
2023-03-28T04:50:54.076Z,-128.00
2023-03-28T04:53:23.587Z,-128.00
2023-03-28T04:56:29.917Z,-128.00
2023-03-28T04:59:01.159Z,-128.00
2023-03-28T05:01:29.795Z,-128.00
2023-03-28T05:04:27.895Z,-128.00
2023-03-28T05:06:57.619Z,-128.00
2023-03-28T05:09:26.452Z,-128.00
2023-03-28T05:11:54.468Z,-128.00
2023-03-28T05:14:22.772Z,-128.00
2023-03-28T05:16:53.846Z,-128.00
2023-03-28T05:19:47.450Z,-128.00
2023-03-28T05:22:22.606Z,-128.00
2023-03-28T05:24:50.492Z,-128.00
2023-03-28T05:27:20.624Z,-128.00
2023-03-28T05:29:49.151Z,-128.00
2023-03-28T05:32:18.917Z,-128.00
2023-03-28T05:34:47.169Z,-128.00
2023-03-28T05:37:15.228Z,-128.00
2023-03-28T05:39:50.573Z,-128.00
2023-03-28T05:42:20.442Z,-128.00
2023-03-28T05:44:51.873Z,-128.00
2023-03-28T05:47:22.648Z,-128.00
2023-03-28T05:49:51.082Z,-128.00
2023-03-28T05:52:22.688Z,-128.00
2023-03-28T05:54:52.337Z,-128.00
2023-03-28T05:57:23.324Z,-128.00
2023-03-28T05:59:51.589Z,-128.00
2023-03-28T06:02:25.235Z,-128.00
2023-03-28T06:04:58.650Z,-128.00
2023-03-28T06:07:39.333Z,-128.00
2023-03-28T06:10:11.711Z,-128.00
2023-03-28T06:12:41.525Z,-128.00
2023-03-28T06:15:09.960Z,-128.00
2023-03-28T06:17:41.391Z,-128.00
2023-03-28T06:20:10.002Z,-128.00
2023-03-28T06:22:38.502Z,-128.00
2023-03-28T06:25:09.412Z,-128.00
2023-03-28T06:27:37.358Z,-128.00
2023-03-28T06:30:07.452Z,-128.00
2023-03-28T06:32:42.866Z,-128.00
2023-03-28T06:35:10.790Z,-128.00
2023-03-28T06:37:38.805Z,-128.00
2023-03-28T06:40:10.165Z,-128.00
2023-03-28T06:42:38.383Z,-128.00
2023-03-28T06:45:35.420Z,-128.00
2023-03-28T06:48:06.322Z,-128.00
2023-03-28T06:51:00.122Z,-128.00
2023-03-28T06:53:33.669Z,-128.00
2023-03-28T06:56:01.704Z,-128.00
2023-03-28T06:58:31.665Z,-128.00
2023-03-28T07:01:06.446Z,-128.00
2023-03-28T07:04:13.869Z,-128.00
2023-03-28T07:06:42.824Z,-128.00
2023-03-28T07:09:10.742Z,-128.00
2023-03-28T07:11:46.158Z,-128.00
2023-03-28T07:14:16.104Z,-128.00
2023-03-28T07:16:44.313Z,-128.00
2023-03-28T07:19:16.170Z,-128.00
2023-03-28T07:21:46.818Z,-128.00
2023-03-28T07:24:15.514Z,-128.00
2023-03-28T07:27:14.733Z,-128.00
2023-03-28T07:29:44.750Z,-128.00
2023-03-28T07:32:16.950Z,-128.00
2023-03-28T07:34:46.468Z,-128.00
2023-03-28T07:37:19.764Z,-128.00
2023-03-28T07:40:14.549Z,-128.00
2023-03-28T07:42:42.622Z,-128.00
2023-03-28T07:45:13.432Z,-128.00
2023-03-28T07:47:41.885Z,-128.00
2023-03-28T07:50:11.094Z,-128.00
2023-03-28T07:52:45.551Z,-128.00
2023-03-28T07:55:14.055Z,-128.00
2023-03-28T07:57:45.417Z,-128.00
2023-03-28T08:00:41.857Z,-128.00
2023-03-28T08:03:39.755Z,-128.00
2023-03-28T08:06:17.036Z,-128.00
2023-03-28T08:08:52.626Z,-128.00
2023-03-28T08:11:47.915Z,-128.00
2023-03-28T08:14:17.313Z,-128.00
2023-03-28T08:16:46.341Z,-128.00
2023-03-28T08:19:14.284Z,-128.00
2023-03-28T08:22:07.904Z,-128.00
2023-03-28T08:24:41.012Z,-128.00
2023-03-28T08:27:18.985Z,-128.00
2023-03-28T08:29:48.719Z,-128.00
2023-03-28T08:32:17.855Z,-128.00
2023-03-28T08:34:48.318Z,-128.00
2023-03-28T08:37:19.635Z,-128.00
2023-03-28T08:39:48.554Z,-128.00
2023-03-28T08:42:39.679Z,-128.00
2023-03-28T08:45:16.944Z,-128.00
2023-03-28T08:48:00.723Z,-128.00
2023-03-28T08:50:32.230Z,-128.00
2023-03-28T08:53:00.888Z,-128.00
2023-03-28T08:55:41.326Z,-128.00
2023-03-28T08:58:19.829Z,-128.00
2023-03-28T09:00:48.470Z,-128.00
2023-03-28T09:03:19.944Z,-128.00
2023-03-28T09:06:09.964Z,-128.00
2023-03-28T09:08:41.863Z,-128.00
2023-03-28T09:11:23.114Z,-128.00
2023-03-28T09:13:55.505Z,-128.00
2023-03-28T09:16:39.716Z,-128.00
2023-03-28T09:19:40.442Z,-128.00
2023-03-28T09:22:57.302Z,-128.00
2023-03-28T09:25:53.831Z,-128.00
2023-03-28T09:28:54.891Z,-128.00
2023-03-28T09:31:27.800Z,-128.00
2023-03-28T09:33:58.984Z,-128.00
2023-03-28T09:36:45.369Z,-128.00
2023-03-28T09:39:45.528Z,-128.00
2023-03-28T09:42:52.883Z,-128.00
2023-03-28T09:46:05.357Z,-128.00
2023-03-28T09:48:48.229Z,-128.00
2023-03-28T09:51:18.476Z,-128.00
2023-03-28T09:53:46.950Z,-128.00
2023-03-28T09:56:26.472Z,-128.00
2023-03-28T09:58:56.134Z,-128.00
2023-03-28T10:01:47.023Z,-128.00
2023-03-28T10:04:27.738Z,-128.00
2023-03-28T10:07:12.299Z,-128.00
2023-03-28T10:09:48.672Z,-128.00
2023-03-28T10:12:21.312Z,-128.00
2023-03-28T10:14:50.558Z,-128.00
2023-03-28T10:17:44.665Z,-128.00
2023-03-28T10:20:22.177Z,-128.00
2023-03-28T10:22:54.858Z,-128.00
2023-03-28T10:25:35.612Z,-128.00
2023-03-28T10:28:05.290Z,-128.00
2023-03-28T10:30:36.403Z,-128.00
2023-03-28T10:33:16.163Z,-128.00
2023-03-28T10:36:14.802Z,-128.00
2023-03-28T10:38:48.494Z,-128.00
2023-03-28T10:41:37.790Z,-128.00
2023-03-28T10:44:19.293Z,-128.00
2023-03-28T10:47:22.377Z,-128.00
2023-03-28T10:49:54.917Z,-128.00
2023-03-28T10:52:31.450Z,-128.00
2023-03-28T10:55:25.166Z,-128.00
2023-03-28T10:58:26.455Z,-128.00
2023-03-28T11:01:14.205Z,-128.00
2023-03-28T11:04:04.253Z,-128.00
2023-03-28T11:06:53.996Z,-128.00
2023-03-28T11:09:42.229Z,-128.00
2023-03-28T11:13:04.237Z,-128.00
2023-03-28T11:15:39.536Z,-128.00
2023-03-28T11:18:17.032Z,-128.00
2023-03-28T11:21:10.410Z,-128.00
2023-03-28T11:23:53.746Z,-128.00
2023-03-28T11:27:12.406Z,-128.00
2023-03-28T11:30:05.724Z,-128.00
2023-03-28T11:32:55.880Z,-128.00
2023-03-28T11:35:38.570Z,-128.00
2023-03-28T11:38:22.413Z,-128.00
2023-03-28T11:40:56.838Z,-128.00
2023-03-28T11:43:43.982Z,-128.00
2023-03-28T11:46:30.083Z,-128.00
2023-03-28T11:49:46.228Z,-128.00
2023-03-28T11:52:39.585Z,-128.00
2023-03-28T11:55:14.556Z,-128.00
2023-03-28T11:58:02.485Z,-128.00
2023-03-28T12:00:34.143Z,-128.00
2023-03-28T12:03:19.925Z,-128.00
2023-03-28T12:06:04.144Z,-128.00
2023-03-28T12:08:46.474Z,-128.00
2023-03-28T12:11:21.697Z,-128.00
2023-03-28T12:14:12.157Z,-128.00
2023-03-28T12:16:47.555Z,-128.00
2023-03-28T12:19:37.952Z,-128.00
2023-03-28T12:22:21.421Z,-128.00
2023-03-28T12:24:59.232Z,-128.00
2023-03-28T12:27:38.886Z,-128.00
2023-03-28T12:30:30.034Z,-128.00
2023-03-28T12:33:08.980Z,-128.00
2023-03-28T12:35:47.596Z,-128.00
2023-03-28T12:38:31.760Z,-128.00
2023-03-28T12:41:10.521Z,-128.00
2023-03-28T12:43:47.051Z,-128.00
2023-03-28T12:46:29.704Z,-128.00
2023-03-28T12:49:00.905Z,-128.00
2023-03-28T12:51:43.149Z,-128.00
2023-03-28T12:54:16.127Z,-128.00
2023-03-28T12:56:48.305Z,-128.00
2023-03-28T12:59:41.383Z,-128.00
2023-03-28T13:02:19.286Z,-128.00
2023-03-28T13:05:29.262Z,-128.00
2023-03-28T13:08:04.786Z,-128.00
2023-03-28T13:10:51.991Z,-128.00
2023-03-28T13:13:45.727Z,-128.00
2023-03-28T13:16:36.495Z,-128.00
2023-03-28T13:19:09.844Z,-128.00
2023-03-28T13:21:58.287Z,-128.00
2023-03-28T13:24:34.020Z,-128.00
2023-03-28T13:27:06.989Z,-128.00
2023-03-28T13:29:51.161Z,-128.00
2023-03-28T13:32:22.194Z,-128.00
2023-03-28T13:34:54.621Z,-128.00
2023-03-28T13:37:43.143Z,-128.00
2023-03-28T13:40:42.965Z,-128.00
2023-03-28T13:43:31.288Z,-128.00
2023-03-28T13:46:20.846Z,-128.00
2023-03-28T13:48:48.734Z,-128.00
2023-03-28T13:51:22.650Z,-128.00
2023-03-28T13:53:50.931Z,-128.00
2023-03-28T13:56:27.889Z,-128.00
2023-03-28T13:58:56.897Z,-128.00
2023-03-28T14:01:29.536Z,-128.00
2023-03-28T14:03:58.058Z,-128.00
2023-03-28T14:06:28.405Z,-128.00
2023-03-28T14:08:58.065Z,-128.00
2023-03-28T14:11:32.443Z,-128.00
2023-03-28T14:14:26.024Z,-128.00
2023-03-28T14:16:53.926Z,-128.00
2023-03-28T14:19:31.145Z,-128.00
2023-03-28T14:22:21.235Z,-128.00
2023-03-28T14:24:51.354Z,-128.00
2023-03-28T14:27:39.111Z,-128.00
2023-03-28T14:30:28.712Z,-128.00
2023-03-28T14:33:01.621Z,-128.00
2023-03-28T14:35:31.339Z,-128.00
2023-03-28T14:38:01.110Z,-128.00
2023-03-28T14:40:32.229Z,-128.00
2023-03-28T14:43:19.542Z,-128.00
2023-03-28T14:45:50.423Z,-128.00
2023-03-28T14:48:25.018Z,-128.00
2023-03-28T14:50:53.803Z,-128.00
2023-03-28T14:53:24.644Z,-128.00
2023-03-28T14:55:54.664Z,-128.00
2023-03-28T14:58:24.075Z,-128.00
2023-03-28T15:00:54.380Z,-128.00
2023-03-28T15:03:35.300Z,-128.00
2023-03-28T15:06:05.696Z,-128.00
2023-03-28T15:08:36.141Z,-128.00
2023-03-28T15:11:08.245Z,-128.00
2023-03-28T15:13:39.995Z,-128.00
2023-03-28T15:16:08.410Z,-128.00
2023-03-28T15:22:01.637Z,-102.37
2023-03-28T15:24:30.730Z,-128.00
2023-03-28T15:27:02.052Z,-128.00
2023-03-28T15:29:36.924Z,-128.00
2023-03-28T15:32:06.739Z,-128.00
2023-03-28T15:34:48.617Z,-128.00
2023-03-28T15:37:20.143Z,-128.00
2023-03-28T15:39:52.627Z,-128.00
2023-03-28T15:42:20.977Z,-128.00
2023-03-28T15:44:58.094Z,-128.00
2023-03-28T15:47:30.591Z,-128.00
2023-03-28T15:50:03.343Z,-128.00
2023-03-28T15:52:34.369Z,-128.00
2023-03-28T15:55:02.693Z,-128.00
2023-03-28T15:57:31.890Z,-128.00
2023-03-28T16:00:00.984Z,-128.00
2023-03-28T16:02:32.476Z,-128.00
2023-03-28T16:05:32.013Z,-128.00
2023-03-28T16:08:00.648Z,-128.00
2023-03-28T16:10:30.056Z,-128.00
2023-03-28T16:13:23.984Z,-128.00
2023-03-28T16:16:00.749Z,-128.00
2023-03-28T16:18:40.134Z,-128.00
2023-03-28T16:21:14.996Z,-128.00
2023-03-28T16:23:43.584Z,-128.00
2023-03-28T16:26:11.722Z,-128.00
2023-03-28T16:28:40.015Z,-128.00
2023-03-28T16:31:13.434Z,-128.00
2023-03-28T16:33:42.031Z,-131.45
2023-03-28T16:36:12.645Z,-128.00
2023-03-28T16:38:42.917Z,-128.00
2023-03-28T16:41:11.194Z,-128.00
2023-03-28T16:43:40.445Z,-128.00
2023-03-28T16:48:36.779Z,-128.00
2023-03-28T16:51:06.722Z,-128.00
2023-03-28T16:53:35.219Z,-128.00
2023-03-28T16:56:04.244Z,-128.00
2023-03-28T16:58:32.170Z,-128.00
2023-03-28T17:01:06.012Z,-128.00
2023-03-28T17:03:35.240Z,-128.00
2023-03-28T17:06:08.166Z,-128.00
2023-03-28T17:08:36.559Z,-128.00
2023-03-28T17:11:07.088Z,-128.00
2023-03-28T17:13:38.990Z,-128.00
2023-03-28T17:16:08.493Z,-128.00
2023-03-28T17:18:38.017Z,-128.00
2023-03-28T17:21:08.088Z,-128.00
2023-03-28T17:23:37.582Z,-128.00
2023-03-28T17:26:07.887Z,-128.00
2023-03-28T17:28:39.056Z,-128.00
2023-03-28T17:31:11.176Z,-128.00
2023-03-28T17:33:39.290Z,-128.00
2023-03-28T17:36:21.070Z,-128.00
2023-03-28T17:38:50.937Z,-128.00
2023-03-28T17:41:19.198Z,-128.00
2023-03-28T17:43:47.382Z,-128.00
2023-03-28T17:46:16.362Z,-128.00
2023-03-28T17:48:44.675Z,-128.00
2023-03-28T17:51:15.305Z,-128.00
2023-03-28T17:53:44.534Z,-128.00
2023-03-28T17:56:12.649Z,-128.00
2023-03-28T17:58:40.714Z,-128.00
2023-03-28T18:01:13.626Z,-128.00
2023-03-28T18:03:42.650Z,-128.00
2023-03-28T18:06:19.604Z,-128.00
2023-03-28T18:08:47.800Z,-128.00
2023-03-28T18:11:17.785Z,-128.00
2023-03-28T18:13:46.872Z,-128.00
2023-03-28T18:16:15.147Z,-128.00
2023-03-28T18:18:43.473Z,-128.00
2023-03-28T18:21:11.722Z,-128.00
2023-03-28T18:23:39.930Z,-128.00
2023-03-28T18:26:08.316Z,-128.00
2023-03-28T18:28:40.403Z,-128.00
2023-03-28T18:31:13.136Z,-128.00
2023-03-28T18:33:42.126Z,-128.00
2023-03-28T18:36:10.923Z,-128.00
2023-03-28T18:38:40.335Z,-128.00
2023-03-28T18:41:09.130Z,-128.00
2023-03-28T18:43:38.748Z,-128.00
2023-03-28T18:46:09.481Z,-128.00
2023-03-28T18:50:58.378Z,-1.37
2023-03-28T18:53:29.614Z,-1.51
2023-03-28T18:55:57.833Z,-1.60
2023-03-28T18:58:28.539Z,-1.65
2023-03-28T19:00:59.196Z,-1.62
2023-03-28T19:03:30.108Z,-1.52
2023-03-28T19:06:02.350Z,-1.47
2023-03-28T19:08:31.051Z,-1.46
2023-03-28T19:11:00.298Z,-1.46
2023-03-28T19:13:29.011Z,-1.51
2023-03-28T19:16:01.081Z,-128.00
2023-03-28T19:18:29.476Z,-128.00
2023-03-28T19:20:58.241Z,-128.00
2023-03-28T19:23:27.408Z,-128.00
2023-03-28T19:25:55.386Z,-128.00
2023-03-28T19:28:23.619Z,-128.00
2023-03-28T19:31:05.912Z,-128.00
2023-03-28T19:33:36.272Z,-128.00
2023-03-28T19:36:05.956Z,-128.00
2023-03-28T19:38:35.095Z,-128.00
2023-03-28T19:41:07.097Z,-128.00
2023-03-28T19:43:37.603Z,-128.00
2023-03-28T19:46:07.423Z,-128.00
2023-03-28T19:48:35.990Z,-128.00
2023-03-28T19:51:04.021Z,-128.00
2023-03-28T19:53:31.988Z,-128.00
2023-03-28T19:56:01.422Z,-128.00
2023-03-28T19:58:31.017Z,-128.00
2023-03-28T20:01:01.464Z,-128.00
2023-03-28T20:03:31.308Z,-128.00
2023-03-28T20:06:04.515Z,-128.00
2023-03-28T20:11:18.379Z,-102.80
2023-03-28T20:13:46.471Z,-128.00
2023-03-28T20:16:15.922Z,-128.00
2023-03-28T20:18:44.522Z,-128.00
2023-03-28T20:21:12.562Z,-128.00
2023-03-28T20:23:41.117Z,-128.00
2023-03-28T20:26:19.672Z,-128.00
2023-03-28T20:28:49.792Z,-128.00
2023-03-28T20:31:18.576Z,-128.00
2023-03-28T20:33:46.923Z,-128.00
2023-03-28T20:36:18.774Z,-128.00
2023-03-28T20:38:49.488Z,-128.00
2023-03-28T20:41:18.079Z,-128.00
2023-03-28T20:43:47.892Z,-128.00
2023-03-28T20:46:20.117Z,-128.00
2023-03-28T20:48:54.609Z,-128.00
2023-03-28T20:51:23.828Z,-128.00
2023-03-28T20:53:54.667Z,-128.00
2023-03-28T20:56:23.625Z,-128.00
2023-03-28T20:58:54.379Z,-128.00
2023-03-28T21:01:25.346Z,-128.00
2023-03-28T21:03:55.381Z,-128.00
2023-03-28T21:06:25.344Z,-128.00
2023-03-28T21:08:54.494Z,-128.00
2023-03-28T21:11:26.484Z,-128.00
2023-03-28T21:13:56.588Z,-128.00
2023-03-28T21:16:25.055Z,-128.00
